Terminal Aerodrome Forecast
Issued by NWS Upton, NY

Home | Current Version | Previous Version | Text Only | Print | Product List | Glossary On
Versions: 1 2 3 4 5 6 7 8 9 10 11 12 13 14 15 16 17 18 19 20 21 22 23 24 25 26
000
FTUS41 KOKX 050527
TAFBDR
TAF
KBDR 050527Z 0506/0606 VRB02KT 4SM BR SCT050 BKN100
      TEMPO 0508/0511 2SM BR
     FM051200 27004KT P6SM FEW050
     FM051400 23006KT P6SM FEW060
     FM051600 22009KT P6SM FEW060
     FM060100 24004KT P6SM SKC=

USA.gov is the U.S. government's official web portal to all federal, state and local government web resources and services.